Time;durP1;ratioP1;P1;durP2;ratioP2;P2;SDS_P1;SDS_P2;PMS_P1;PMS_P2;Temp;Humidity;BMP_temperature;BMP_pressure;BME280_temperature;BME280_humidity;BME280_pressure;Samples;Min_cycle;Max_cycle;Signal;HPM_P1;HPM_P2
2022/09/02 00:00:43;;;;;;;2.30;2.10;;;;;;;;;;8282068;28;20029;-70
2022/09/02 00:04:44;;;;;;;2.20;2.00;;;;;;;;;;8274362;28;20026;-70
2022/09/02 00:08:44;;;;;;;2.03;1.88;;;;;;;;;;8282114;28;20065;-70
2022/09/02 00:12:44;;;;;;;2.28;2.08;;;;;;;;;;8284521;28;20029;-70
2022/09/02 00:16:50;;;;;;;1.90;1.80;;;;;;;;;;8280962;28;20489;-70
2022/09/02 00:20:50;;;;;;;2.05;1.85;;;;;;;;;;8283393;28;20013;-70
2022/09/02 00:24:51;;;;;;;2.70;2.10;;;;;;;;;;8283819;28;20028;-70
2022/09/02 00:28:51;;;;;;;2.17;1.90;;;;;;;;;;8283580;28;20669;-70
2022/09/02 00:32:52;;;;;;;1.98;1.85;;;;;;;;;;8282383;28;20029;-70
2022/09/02 00:36:52;;;;;;;2.17;1.98;;;;;;;;;;8283146;28;20473;-70
2022/09/02 00:40:52;;;;;;;2.67;2.05;;;;;;;;;;8282122;28;20491;-70
2022/09/02 00:44:53;;;;;;;4.82;2.15;;;;;;;;;;8283103;28;20026;-70
2022/09/02 00:48:58;;;;;;;2.47;2.20;;;;;;;;;;8283384;28;20037;-70
2022/09/02 00:53:01;;;;;;;2.30;2.10;;;;;;;;;;8282188;28;20136;-70
2022/09/02 00:57:04;;;;;;;2.72;2.20;;;;;;;;;;8283070;28;20085;-70
2022/09/02 01:01:04;;;;;;;3.92;2.25;;;;;;;;;;8281842;28;20141;-70
2022/09/02 01:05:07;;;;;;;2.22;2.03;;;;;;;;;;8284691;28;20060;-70
2022/09/02 01:09:10;;;;;;;2.20;2.00;;;;;;;;;;8283027;28;20022;-71
2022/09/02 01:13:14;;;;;;;2.17;1.98;;;;;;;;;;8284088;28;20566;-71
2022/09/02 01:17:19;;;;;;;2.28;2.08;;;;;;;;;;8283418;28;21027;-70
2022/09/02 01:21:19;;;;;;;2.42;2.22;;;;;;;;;;8289315;28;20768;-69
2022/09/02 01:25:21;;;;;;;2.00;1.90;;;;;;;;;;8290613;28;20696;-70
2022/09/02 01:29:22;;;;;;;3.20;2.17;;;;;;;;;;8289487;28;20380;-70
2022/09/02 01:33:23;;;;;;;4.78;1.98;;;;;;;;;;8286955;28;20041;-70
2022/09/02 01:37:23;;;;;;;2.50;2.28;;;;;;;;;;8288380;28;20029;-71
2022/09/02 01:41:23;;;;;;;2.35;2.15;;;;;;;;;;8288334;28;20036;-71
2022/09/02 01:45:23;;;;;;;2.30;2.10;;;;;;;;;;8279509;28;20107;-71
2022/09/02 01:49:24;;;;;;;2.28;2.08;;;;;;;;;;8292275;28;20559;-71
2022/09/02 01:53:24;;;;;;;2.17;1.98;;;;;;;;;;8288340;28;20021;-71
2022/09/02 01:57:24;;;;;;;2.80;2.15;;;;;;;;;;8288818;28;20089;-70
2022/09/02 02:01:25;;;;;;;2.72;2.03;;;;;;;;;;8289396;28;20185;-71
2022/09/02 02:05:25;;;;;;;2.88;2.20;;;;;;;;;;8288357;28;20026;-71
2022/09/02 02:09:25;;;;;;;2.30;2.03;;;;;;;;;;8288944;28;20030;-71
2022/09/02 02:13:25;;;;;;;2.35;2.15;;;;;;;;;;8287629;28;20029;-71
2022/09/02 02:17:26;;;;;;;2.25;2.05;;;;;;;;;;8286672;28;20037;-71
2022/09/02 02:21:26;;;;;;;1.93;1.77;;;;;;;;;;8287374;28;20102;-71
2022/09/02 02:25:26;;;;;;;2.40;2.20;;;;;;;;;;8287713;28;20063;-71
2022/09/02 02:29:27;;;;;;;2.50;2.30;;;;;;;;;;8286274;28;20030;-71
2022/09/02 02:33:30;;;;;;;2.35;2.15;;;;;;;;;;8284477;28;20043;-71
2022/09/02 02:37:30;;;;;;;4.57;2.10;;;;;;;;;;8285589;28;20100;-71
2022/09/02 02:41:31;;;;;;;2.25;1.95;;;;;;;;;;8285639;28;20183;-71
2022/09/02 02:45:31;;;;;;;2.13;1.92;;;;;;;;;;8284467;28;20838;-71
2022/09/02 02:49:35;;;;;;;2.42;2.00;;;;;;;;;;8286026;28;20502;-71
2022/09/02 02:53:35;;;;;;;2.47;2.13;;;;;;;;;;8287142;28;20029;-71
2022/09/02 02:57:37;;;;;;;2.15;2.00;;;;;;;;;;8286900;28;20863;-71
2022/09/02 03:01:38;;;;;;;2.75;2.20;;;;;;;;;;8283895;28;20032;-71
2022/09/02 03:05:38;;;;;;;2.65;2.22;;;;;;;;;;8284458;28;20096;-70
2022/09/02 03:09:39;;;;;;;2.00;1.90;;;;;;;;;;8274105;28;20021;-71
2022/09/02 03:13:39;;;;;;;2.05;1.95;;;;;;;;;;8286064;28;20064;-71
2022/09/02 03:17:39;;;;;;;2.33;2.00;;;;;;;;;;8283611;28;20069;-71
2022/09/02 03:21:40;;;;;;;3.10;2.47;;;;;;;;;;8285323;28;20029;-70
2022/09/02 03:25:41;;;;;;;2.20;2.00;;;;;;;;;;8286663;28;20127;-71
2022/09/02 03:29:43;;;;;;;2.45;1.95;;;;;;;;;;8285001;28;20586;-71
2022/09/02 03:33:43;;;;;;;2.92;2.20;;;;;;;;;;8285215;28;20641;-71
2022/09/02 03:37:44;;;;;;;2.47;2.28;;;;;;;;;;8284697;28;20087;-70
2022/09/02 03:41:44;;;;;;;3.38;2.22;;;;;;;;;;8284831;28;20029;-70
2022/09/02 03:45:45;;;;;;;2.33;2.08;;;;;;;;;;8284419;28;20040;-71
2022/09/02 03:49:45;;;;;;;5.60;2.65;;;;;;;;;;8284471;28;20037;-71
2022/09/02 03:53:45;;;;;;;3.55;2.17;;;;;;;;;;8282901;28;20029;-71
2022/09/02 03:57:45;;;;;;;3.37;2.00;;;;;;;;;;8285321;28;20040;-71
2022/09/02 04:01:46;;;;;;;2.40;2.13;;;;;;;;;;8283020;28;20343;-71
2022/09/02 04:05:50;;;;;;;2.30;2.10;;;;;;;;;;8282908;28;20376;-71
2022/09/02 04:09:50;;;;;;;2.92;2.22;;;;;;;;;;8284802;28;20048;-71
2022/09/02 04:13:51;;;;;;;3.20;2.28;;;;;;;;;;8283870;28;20041;-71
2022/09/02 04:17:51;;;;;;;2.45;2.25;;;;;;;;;;8282693;28;20034;-71
2022/09/02 04:21:52;;;;;;;2.60;2.40;;;;;;;;;;8282092;28;20059;-71
2022/09/02 04:25:53;;;;;;;2.70;2.33;;;;;;;;;;8282991;28;20049;-71
2022/09/02 04:29:53;;;;;;;2.58;2.30;;;;;;;;;;8283488;28;20041;-71
2022/09/02 04:33:53;;;;;;;2.20;2.00;;;;;;;;;;8284068;28;20033;-71
2022/09/02 04:37:54;;;;;;;2.75;2.22;;;;;;;;;;8282888;28;20070;-70
2022/09/02 04:41:54;;;;;;;2.22;2.03;;;;;;;;;;8282713;28;20038;-71
2022/09/02 04:45:54;;;;;;;2.47;1.88;;;;;;;;;;8282466;28;20095;-71
2022/09/02 04:49:55;;;;;;;2.30;2.10;;;;;;;;;;8282683;28;20026;-70
2022/09/02 04:53:55;;;;;;;2.63;2.30;;;;;;;;;;8285035;28;20682;-71
2022/09/02 04:57:55;;;;;;;2.10;2.00;;;;;;;;;;8287991;28;20268;-71
2022/09/02 05:01:55;;;;;;;2.70;2.10;;;;;;;;;;8287408;28;20131;-71
2022/09/02 05:05:59;;;;;;;2.97;2.30;;;;;;;;;;8288715;28;20035;-71
2022/09/02 05:10:01;;;;;;;;;;;;;;;;;;8288471;28;20260;-71
2022/09/02 05:14:03;;;;;;;2.45;2.25;;;;;;;;;;8287229;28;20681;-71
2022/09/02 05:18:03;;;;;;;2.30;2.10;;;;;;;;;;8289387;28;20132;-71
2022/09/02 05:22:03;;;;;;;2.10;2.00;;;;;;;;;;8287610;28;20060;-72
2022/09/02 05:26:04;;;;;;;2.90;2.10;;;;;;;;;;8290440;28;20014;-72
2022/09/02 05:30:05;;;;;;;3.38;2.10;;;;;;;;;;8288487;28;20267;-72
2022/09/02 05:34:06;;;;;;;1.80;1.70;;;;;;;;;;8288398;28;20037;-72
2022/09/02 05:38:07;;;;;;;2.05;1.85;;;;;;;;;;8287509;28;20068;-72
2022/09/02 05:42:07;;;;;;;2.28;2.10;;;;;;;;;;8288589;28;20076;-72
2022/09/02 05:46:09;;;;;;;6.40;2.10;;;;;;;;;;8287657;28;20447;-72
2022/09/02 05:50:09;;;;;;;3.42;2.05;;;;;;;;;;8288393;28;20911;-72
2022/09/02 05:54:10;;;;;;;2.47;2.10;;;;;;;;;;8288300;28;20730;-72
2022/09/02 05:58:10;;;;;;;2.35;1.70;;;;;;;;;;8286620;28;20895;-72
2022/09/02 06:02:12;;;;;;;2.08;1.98;;;;;;;;;;8286488;28;20033;-71
2022/09/02 06:06:13;;;;;;;2.38;1.88;;;;;;;;;;8285411;28;20025;-72
2022/09/02 06:10:13;;;;;;;3.42;2.17;;;;;;;;;;8287455;28;20021;-72
2022/09/02 06:14:14;;;;;;;3.50;2.20;;;;;;;;;;8289877;28;20029;-72
2022/09/02 06:18:15;;;;;;;5.95;2.08;;;;;;;;;;8285791;28;20040;-71
2022/09/02 06:22:15;;;;;;;2.42;2.00;;;;;;;;;;8286084;28;20866;-72
2022/09/02 06:26:17;;;;;;;2.50;2.00;;;;;;;;;;8288283;28;20148;-72
2022/09/02 06:30:17;;;;;;;3.65;1.90;;;;;;;;;;8284903;28;20136;-73
2022/09/02 06:34:18;;;;;;;1.80;1.70;;;;;;;;;;8285713;28;20550;-73
2022/09/02 06:38:19;;;;;;;1.60;1.50;;;;;;;;;;8287078;28;20908;-73
2022/09/02 06:42:19;;;;;;;4.47;1.60;;;;;;;;;;8285232;28;20536;-73
2022/09/02 06:46:21;;;;;;;2.92;1.50;;;;;;;;;;8285448;28;20908;-73
2022/09/02 06:50:21;;;;;;;2.20;1.55;;;;;;;;;;8284987;28;20091;-73
2022/09/02 06:54:22;;;;;;;2.25;1.70;;;;;;;;;;8273342;28;20029;-73
2022/09/02 06:58:22;;;;;;;1.77;1.63;;;;;;;;;;8271048;28;20033;-73
2022/09/02 07:02:22;;;;;;;1.85;1.50;;;;;;;;;;8286767;28;20045;-72
2022/09/02 07:06:24;;;;;;;2.25;1.55;;;;;;;;;;8284827;28;20893;-73
2022/09/02 07:10:24;;;;;;;3.72;1.50;;;;;;;;;;8285034;28;20062;-73
2022/09/02 07:14:27;;;;;;;5.75;1.40;;;;;;;;;;8284152;28;20044;-73
2022/09/02 07:18:27;;;;;;;3.63;1.60;;;;;;;;;;8285199;28;20038;-73
2022/09/02 07:22:28;;;;;;;1.50;1.40;;;;;;;;;;8284811;28;20033;-73
2022/09/02 07:26:28;;;;;;;1.85;1.35;;;;;;;;;;8284452;28;20042;-73
2022/09/02 07:30:30;;;;;;;1.77;1.45;;;;;;;;;;8286633;28;20049;-73
2022/09/02 07:34:30;;;;;;;5.50;1.27;;;;;;;;;;8284906;28;20033;-73
2022/09/02 07:38:31;;;;;;;2.20;1.90;;;;;;;;;;8284456;28;20391;-72
2022/09/02 07:42:31;;;;;;;2.97;1.70;;;;;;;;;;8284785;28;21281;-73
2022/09/02 07:46:32;;;;;;;2.22;1.70;;;;;;;;;;8283536;28;20464;-73
2022/09/02 07:50:36;;;;;;;3.90;1.70;;;;;;;;;;8284253;28;20035;-73
2022/09/02 07:54:36;;;;;;;2.45;1.70;;;;;;;;;;8285338;28;20075;-72
2022/09/02 07:58:38;;;;;;;2.90;1.88;;;;;;;;;;8284733;28;20033;-72
2022/09/02 08:02:38;;;;;;;2.83;1.63;;;;;;;;;;8283481;28;20033;-73
2022/09/02 08:06:38;;;;;;;2.88;1.40;;;;;;;;;;8285492;28;20040;-72
2022/09/02 08:10:39;;;;;;;5.20;1.52;;;;;;;;;;8285516;28;20021;-72
2022/09/02 08:14:39;;;;;;;1.70;1.45;;;;;;;;;;8286077;28;20386;-72
2022/09/02 08:18:39;;;;;;;1.40;1.30;;;;;;;;;;8284496;28;20041;-72
2022/09/02 08:22:39;;;;;;;1.90;1.40;;;;;;;;;;8283888;28;20107;-72
2022/09/02 08:26:40;;;;;;;1.50;1.38;;;;;;;;;;8285051;28;20844;-73
2022/09/02 08:30:40;;;;;;;3.33;1.50;;;;;;;;;;8282845;28;20533;-72
2022/09/02 08:34:40;;;;;;;3.30;1.30;;;;;;;;;;8269436;28;20040;-72
2022/09/02 08:38:41;;;;;;;2.95;1.70;;;;;;;;;;8284185;28;20930;-73
2022/09/02 08:42:46;;;;;;;2.40;1.52;;;;;;;;;;8283946;28;20030;-73
2022/09/02 08:46:47;;;;;;;2.58;1.60;;;;;;;;;;8282864;28;20653;-73
2022/09/02 08:50:49;;;;;;;3.05;1.40;;;;;;;;;;8266647;28;20025;-73
2022/09/02 08:54:57;;;;;;;2.10;1.70;;;;;;;;;;8280060;28;20652;-72
2022/09/02 08:59:01;;;;;;;1.73;1.50;;;;;;;;;;8284622;28;20018;-73
2022/09/02 09:03:17;;;;;;;1.73;1.40;;;;;;;;;;8282585;28;20037;-73
2022/09/02 09:07:17;;;;;;;5.45;1.65;;;;;;;;;;8281589;28;20030;-73
2022/09/02 09:11:20;;;;;;;1.50;1.40;;;;;;;;;;8282603;28;20030;-73
2022/09/02 09:15:28;;;;;;;4.60;1.70;;;;;;;;;;8280286;28;20163;-73
2022/09/02 09:19:46;;;;;;;3.80;1.40;;;;;;;;;;8283987;28;20029;-73
2022/09/02 09:23:46;;;;;;;5.25;1.75;;;;;;;;;;8282427;28;20347;-72
2022/09/02 09:27:47;;;;;;;4.07;1.73;;;;;;;;;;8283332;28;20707;-73
2022/09/02 09:31:56;;;;;;;2.05;1.60;;;;;;;;;;8281139;28;20037;-73
2022/09/02 09:35:57;;;;;;;2.00;1.38;;;;;;;;;;8282740;28;20442;-72
2022/09/02 09:39:57;;;;;;;2.30;1.52;;;;;;;;;;8282692;28;20112;-72
2022/09/02 09:43:57;;;;;;;5.05;1.40;;;;;;;;;;8289235;28;20064;-73
2022/09/02 09:48:07;;;;;;;6.22;1.48;;;;;;;;;;8286844;28;20026;-72
2022/09/02 09:52:07;;;;;;;2.58;1.40;;;;;;;;;;8286253;28;20546;-73
2022/09/02 09:56:14;;;;;;;4.15;1.38;;;;;;;;;;8290466;28;20091;-73
2022/09/02 10:00:30;;;;;;;1.98;1.40;;;;;;;;;;8287329;28;20029;-72
2022/09/02 10:04:32;;;;;;;2.33;1.30;;;;;;;;;;8288190;28;20033;-72
2022/09/02 10:08:32;;;;;;;2.58;1.20;;;;;;;;;;8287267;28;20040;-72
2022/09/02 10:12:32;;;;;;;1.73;1.37;;;;;;;;;;8288233;28;20590;-72
2022/09/02 10:16:48;;;;;;;4.00;1.60;;;;;;;;;;8287090;28;20530;-72
2022/09/02 10:20:59;;;;;;;2.42;1.20;;;;;;;;;;8286492;28;20018;-72
2022/09/02 10:25:19;;;;;;;2.67;1.13;;;;;;;;;;8287419;28;20025;-72
2022/09/02 10:29:38;;;;;;;3.20;1.40;;;;;;;;;;8288302;28;20691;-72
2022/09/02 10:33:44;;;;;;;1.27;1.17;;;;;;;;;;8287530;28;20048;-73
2022/09/02 10:37:50;;;;;;;1.75;1.40;;;;;;;;;;8286546;28;20025;-72
2022/09/02 10:41:56;;;;;;;6.57;1.40;;;;;;;;;;8284705;28;20053;-72
2022/09/02 10:45:59;;;;;;;2.28;1.60;;;;;;;;;;8285973;28;20052;-72
2022/09/02 10:50:00;;;;;;;4.50;1.80;;;;;;;;;;8286481;28;20021;-73
2022/09/02 10:54:23;;;;;;;2.25;1.40;;;;;;;;;;8283407;28;20526;-73
2022/09/02 10:58:33;;;;;;;2.33;1.30;;;;;;;;;;8231490;28;20048;-72
2022/09/02 11:02:37;;;;;;;3.50;1.23;;;;;;;;;;8283866;28;20034;-73
2022/09/02 11:06:38;;;;;;;3.47;1.50;;;;;;;;;;8285839;28;20139;-73
2022/09/02 11:10:42;;;;;;;2.95;1.40;;;;;;;;;;8286950;28;20029;-72
2022/09/02 11:14:49;;;;;;;4.28;1.42;;;;;;;;;;8284389;28;20950;-72
2022/09/02 11:18:54;;;;;;;2.17;1.23;;;;;;;;;;8285198;28;20041;-73
2022/09/02 11:22:55;;;;;;;1.42;1.20;;;;;;;;;;8269995;28;20029;-73
2022/09/02 11:27:14;;;;;;;3.83;1.20;;;;;;;;;;8286633;28;20342;-73
2022/09/02 11:31:18;;;;;;;3.55;1.10;;;;;;;;;;8280876;28;20060;-72
2022/09/02 11:35:26;;;;;;;1.75;1.02;;;;;;;;;;8282733;28;20029;-73
2022/09/02 11:39:31;;;;;;;2.15;1.17;;;;;;;;;;8282619;28;20211;-72
2022/09/02 11:43:44;;;;;;;5.07;1.10;;;;;;;;;;8280988;28;20040;-73
2022/09/02 11:47:45;;;;;;;1.30;1.20;;;;;;;;;;8281844;28;20554;-73
2022/09/02 11:52:06;;;;;;;1.17;1.15;;;;;;;;;;8280680;28;20033;-73
2022/09/02 11:56:15;;;;;;;1.77;0.90;;;;;;;;;;8279522;28;20053;-72
2022/09/02 12:00:25;;;;;;;2.40;1.10;;;;;;;;;;8280860;28;20022;-72
2022/09/02 12:04:26;;;;;;;3.13;1.10;;;;;;;;;;8279264;28;20021;-73
2022/09/02 12:08:26;;;;;;;2.40;1.02;;;;;;;;;;8281194;28;20155;-72
2022/09/02 12:12:35;;;;;;;1.10;1.00;;;;;;;;;;8279429;28;20719;-73
2022/09/02 12:16:38;;;;;;;1.77;1.00;;;;;;;;;;8281290;28;20786;-73
2022/09/02 12:20:40;;;;;;;1.67;1.05;;;;;;;;;;8279767;28;20017;-73
2022/09/02 12:24:59;;;;;;;2.55;0.98;;;;;;;;;;8281074;28;20761;-73
2022/09/02 12:29:17;;;;;;;2.25;1.08;;;;;;;;;;8280552;28;20017;-72
2022/09/02 12:33:27;;;;;;;1.05;0.93;;;;;;;;;;8275504;28;20029;-72
2022/09/02 12:37:46;;;;;;;3.60;1.20;;;;;;;;;;8277440;28;20052;-73
2022/09/02 12:41:51;;;;;;;0.82;0.82;;;;;;;;;;8264999;28;20159;-73
2022/09/02 12:45:53;;;;;;;5.22;1.10;;;;;;;;;;8277807;28;20037;-73
2022/09/02 12:49:59;;;;;;;1.20;1.10;;;;;;;;;;8281182;28;20459;-71
2022/09/02 12:54:00;;;;;;;2.33;1.00;;;;;;;;;;8278559;28;20760;-71
2022/09/02 12:58:06;;;;;;;1.63;1.00;;;;;;;;;;8279979;28;20163;-71
2022/09/02 13:02:09;;;;;;;1.08;0.88;;;;;;;;;;8276170;28;20033;-70
2022/09/02 13:06:28;;;;;;;2.22;0.90;;;;;;;;;;8276732;28;20904;-70
2022/09/02 13:10:36;;;;;;;0.93;0.93;;;;;;;;;;8277631;28;20133;-70
2022/09/02 13:15:12;;;;;;;1.75;1.20;;;;;;;;;;8255335;28;20036;-70
2022/09/02 13:19:38;;;;;;;1.00;1.00;;;;;;;;;;8200255;28;20156;-70
2022/09/02 13:23:42;;;;;;;1.55;1.00;;;;;;;;;;8277705;28;20038;-70
2022/09/02 13:27:45;;;;;;;1.83;1.05;;;;;;;;;;8284215;28;20470;-70
2022/09/02 13:31:59;;;;;;;3.40;1.02;;;;;;;;;;8281335;28;20112;-70
2022/09/02 13:35:59;;;;;;;1.35;1.00;;;;;;;;;;8284838;28;20032;-70
2022/09/02 13:40:02;;;;;;;2.63;1.00;;;;;;;;;;8282878;28;20030;-70
2022/09/02 13:44:18;;;;;;;1.90;1.00;;;;;;;;;;8284050;28;20033;-70
2022/09/02 13:48:19;;;;;;;1.60;1.10;;;;;;;;;;8283607;28;20047;-70
2022/09/02 13:52:21;;;;;;;3.22;1.00;;;;;;;;;;8282707;28;20776;-70
2022/09/02 13:56:27;;;;;;;3.57;1.10;;;;;;;;;;8282454;28;20037;-70
2022/09/02 14:00:38;;;;;;;1.52;1.00;;;;;;;;;;8282719;28;20835;-70
2022/09/02 14:04:38;;;;;;;2.58;1.10;;;;;;;;;;8283533;28;20435;-70
2022/09/02 14:08:39;;;;;;;2.97;1.10;;;;;;;;;;8282427;28;20021;-70
2022/09/02 14:12:39;;;;;;;2.13;1.00;;;;;;;;;;8284092;28;20041;-70
2022/09/02 14:16:39;;;;;;;3.00;1.00;;;;;;;;;;8280708;28;20315;-70
2022/09/02 14:20:56;;;;;;;2.83;1.10;;;;;;;;;;8281787;28;20021;-70
2022/09/02 14:24:57;;;;;;;2.05;0.90;;;;;;;;;;8283389;28;20037;-70
2022/09/02 14:28:57;;;;;;;3.27;1.20;;;;;;;;;;8282396;28;20017;-70
2022/09/02 14:33:17;;;;;;;2.95;1.13;;;;;;;;;;8280626;28;20045;-70
2022/09/02 14:37:19;;;;;;;1.77;1.10;;;;;;;;;;8284039;28;20662;-70
2022/09/02 14:41:23;;;;;;;1.35;1.00;;;;;;;;;;8281550;28;20033;-70
2022/09/02 14:45:28;;;;;;;1.60;1.05;;;;;;;;;;8281593;28;20049;-70
2022/09/02 14:49:30;;;;;;;1.27;1.00;;;;;;;;;;8282293;28;20481;-70
2022/09/02 14:53:31;;;;;;;3.55;1.10;;;;;;;;;;8280186;28;20679;-69
2022/09/02 14:57:37;;;;;;;1.23;1.13;;;;;;;;;;8280707;28;20756;-70
2022/09/02 15:01:45;;;;;;;2.00;1.25;;;;;;;;;;8279156;28;20034;-70
2022/09/02 15:05:45;;;;;;;4.38;1.10;;;;;;;;;;8280183;28;20036;-70
2022/09/02 15:09:50;;;;;;;1.37;0.97;;;;;;;;;;8280530;28;20022;-70
2022/09/02 15:13:50;;;;;;;1.58;1.08;;;;;;;;;;8279829;28;20609;-70
2022/09/02 15:17:50;;;;;;;2.35;1.30;;;;;;;;;;8279513;28;20045;-70
2022/09/02 15:21:50;;;;;;;2.00;1.00;;;;;;;;;;8280416;28;20136;-70
2022/09/02 15:25:52;;;;;;;3.38;1.10;;;;;;;;;;8278423;28;20033;-70
2022/09/02 15:29:52;;;;;;;3.25;1.30;;;;;;;;;;8281182;28;20043;-70
2022/09/02 15:33:53;;;;;;;1.45;0.93;;;;;;;;;;8278284;28;20041;-70
2022/09/02 15:37:53;;;;;;;1.85;0.90;;;;;;;;;;8280600;28;20953;-71
2022/09/02 15:41:54;;;;;;;2.10;1.00;;;;;;;;;;8267764;28;20452;-70
2022/09/02 15:45:54;;;;;;;2.13;1.00;;;;;;;;;;8279549;28;20037;-70
2022/09/02 15:49:56;;;;;;;2.67;1.05;;;;;;;;;;8276003;28;20745;-70
2022/09/02 15:53:58;;;;;;;2.78;1.05;;;;;;;;;;8276823;28;20111;-75
2022/09/02 15:57:58;;;;;;;5.32;1.15;;;;;;;;;;8280833;28;20141;-73
2022/09/02 16:01:59;;;;;;;2.33;1.08;;;;;;;;;;8279337;28;20682;-73
2022/09/02 16:06:00;;;;;;;0.80;0.80;;;;;;;;;;8282025;28;20041;-73
2022/09/02 16:10:00;;;;;;;5.80;1.30;;;;;;;;;;8267326;28;20705;-73
2022/09/02 16:14:00;;;;;;;2.05;1.10;;;;;;;;;;8279777;28;20059;-72
2022/09/02 16:18:00;;;;;;;4.38;1.00;;;;;;;;;;8281967;28;20148;-71
2022/09/02 16:22:00;;;;;;;2.13;1.10;;;;;;;;;;8281269;28;20025;-72
2022/09/02 16:26:19;;;;;;;1.73;0.98;;;;;;;;;;8280909;28;20764;-72
2022/09/02 16:30:20;;;;;;;1.60;1.02;;;;;;;;;;8281863;28;20041;-72
2022/09/02 16:34:20;;;;;;;3.58;1.00;;;;;;;;;;8267357;28;20026;-72
2022/09/02 16:38:20;;;;;;;2.37;1.10;;;;;;;;;;8280997;28;20037;-72
2022/09/02 16:42:21;;;;;;;4.50;1.07;;;;;;;;;;8280198;28;20356;-72
2022/09/02 16:46:21;;;;;;;5.60;0.95;;;;;;;;;;8276322;28;20427;-72
2022/09/02 16:50:21;;;;;;;2.03;1.20;;;;;;;;;;8268066;28;20225;-72
2022/09/02 16:54:22;;;;;;;4.38;1.00;;;;;;;;;;8291381;28;20038;-72
2022/09/02 16:58:22;;;;;;;5.05;0.90;;;;;;;;;;8288759;28;20287;-72
2022/09/02 17:02:23;;;;;;;1.45;1.35;;;;;;;;;;8285799;28;20587;-72
2022/09/02 17:06:23;;;;;;;4.47;1.10;;;;;;;;;;8284822;28;20071;-72
2022/09/02 17:10:23;;;;;;;1.35;0.90;;;;;;;;;;8286097;28;20025;-71
2022/09/02 17:14:24;;;;;;;0.82;0.82;;;;;;;;;;8287966;28;20045;-72
2022/09/02 17:18:24;;;;;;;1.00;0.90;;;;;;;;;;8286763;28;20530;-72
2022/09/02 17:22:24;;;;;;;2.50;0.90;;;;;;;;;;8288396;28;20037;-72
2022/09/02 17:26:25;;;;;;;1.80;0.90;;;;;;;;;;8289176;28;20109;-72
2022/09/02 17:30:25;;;;;;;2.75;0.80;;;;;;;;;;8287507;28;20037;-72
2022/09/02 17:34:25;;;;;;;1.25;0.88;;;;;;;;;;8289805;28;20531;-71
2022/09/02 17:38:26;;;;;;;1.13;0.90;;;;;;;;;;8277444;28;20033;-71
2022/09/02 17:42:26;;;;;;;1.70;0.87;;;;;;;;;;8292785;28;20060;-72
2022/09/02 17:46:26;;;;;;;2.25;0.90;;;;;;;;;;8287660;28;20041;-73
2022/09/02 17:50:26;;;;;;;0.77;0.77;;;;;;;;;;8289150;28;20029;-73
2022/09/02 17:54:26;;;;;;;2.55;0.93;;;;;;;;;;8289193;28;20413;-72
2022/09/02 17:58:30;;;;;;;1.65;0.90;;;;;;;;;;8290142;28;20022;-72
2022/09/02 18:02:49;;;;;;;2.30;1.08;;;;;;;;;;8283895;28;20033;-72
2022/09/02 18:06:52;;;;;;;1.00;0.90;;;;;;;;;;8282286;28;20029;-72
2022/09/02 18:10:55;;;;;;;1.10;0.90;;;;;;;;;;8282888;28;20025;-72
2022/09/02 18:15:00;;;;;;;4.38;1.08;;;;;;;;;;8282738;28;20702;-72
2022/09/02 18:19:12;;;;;;;0.95;0.90;;;;;;;;;;8281122;28;20833;-72
2022/09/02 18:23:31;;;;;;;9.27;1.02;;;;;;;;;;8280128;28;20478;-72
2022/09/02 18:27:50;;;;;;;0.80;0.80;;;;;;;;;;8283558;28;20661;-73
2022/09/02 18:31:53;;;;;;;3.40;1.08;;;;;;;;;;8269416;28;20041;-73
2022/09/02 18:35:56;;;;;;;4.72;1.05;;;;;;;;;;8282076;28;20867;-73
2022/09/02 18:40:16;;;;;;;2.47;0.98;;;;;;;;;;8272441;28;20071;-72
2022/09/02 18:44:34;;;;;;;2.63;1.00;;;;;;;;;;8282010;28;20405;-72
2022/09/02 18:48:36;;;;;;;2.20;0.90;;;;;;;;;;8280041;28;20037;-72
2022/09/02 18:52:36;;;;;;;3.90;1.10;;;;;;;;;;8281361;28;20024;-73
2022/09/02 18:56:41;;;;;;;1.23;1.00;;;;;;;;;;8280939;28;20488;-72
2022/09/02 19:00:47;;;;;;;2.28;1.10;;;;;;;;;;8278815;28;20509;-71
2022/09/02 19:04:47;;;;;;;2.88;0.90;;;;;;;;;;8268019;28;20148;-71
2022/09/02 19:08:48;;;;;;;1.70;0.88;;;;;;;;;;8280482;28;20057;-71
2022/09/02 19:12:48;;;;;;;1.02;0.90;;;;;;;;;;8280127;28;20049;-71
2022/09/02 19:16:48;;;;;;;3.08;1.70;;;;;;;;;;8279357;28;20617;-71
2022/09/02 19:20:49;;;;;;;1.63;0.93;;;;;;;;;;8279950;28;20025;-71
2022/09/02 19:24:55;;;;;;;2.15;0.95;;;;;;;;;;8280704;28;20030;-71
2022/09/02 19:28:56;;;;;;;4.38;1.00;;;;;;;;;;8279598;28;20052;-71
2022/09/02 19:32:59;;;;;;;2.55;1.10;;;;;;;;;;8280221;28;20034;-72
2022/09/02 19:36:59;;;;;;;3.08;1.02;;;;;;;;;;8279563;28;20712;-71
2022/09/02 19:41:00;;;;;;;1.67;1.02;;;;;;;;;;8269495;28;20088;-71
2022/09/02 19:45:00;;;;;;;1.58;1.05;;;;;;;;;;8278410;28;21019;-71
2022/09/02 19:49:01;;;;;;;2.10;1.02;;;;;;;;;;8278947;28;20423;-71
2022/09/02 19:53:01;;;;;;;3.22;1.10;;;;;;;;;;8279160;28;20024;-71
2022/09/02 19:57:01;;;;;;;0.93;0.90;;;;;;;;;;8279001;28;20484;-71
2022/09/02 20:01:03;;;;;;;0.90;0.90;;;;;;;;;;8278916;28;20747;-71
2022/09/02 20:05:03;;;;;;;4.38;0.90;;;;;;;;;;8279521;28;20283;-72
2022/09/02 20:09:04;;;;;;;1.42;0.93;;;;;;;;;;8278981;28;20021;-71
2022/09/02 20:13:05;;;;;;;2.65;0.80;;;;;;;;;;8277786;28;20033;-71
2022/09/02 20:17:08;;;;;;;1.30;1.20;;;;;;;;;;8278772;28;21350;-71
2022/09/02 20:21:08;;;;;;;3.05;0.90;;;;;;;;;;8278906;28;20029;-71
2022/09/02 20:25:09;;;;;;;1.57;1.00;;;;;;;;;;8273948;28;20134;-71
2022/09/02 20:29:24;;;;;;;1.27;1.15;;;;;;;;;;8279010;28;20334;-71
2022/09/02 20:33:28;;;;;;;2.47;0.98;;;;;;;;;;8275123;28;20034;-70
2022/09/02 20:37:44;;;;;;;1.13;0.90;;;;;;;;;;8277812;28;20566;-71
2022/09/02 20:41:50;;;;;;;2.20;1.05;;;;;;;;;;8277837;28;20444;-71
2022/09/02 20:46:00;;;;;;;1.23;1.13;;;;;;;;;;8280722;28;20044;-71
2022/09/02 20:50:36;;;;;;;0.93;0.93;;;;;;;;;;8284681;28;20340;-70
2022/09/02 20:54:36;;;;;;;2.35;0.90;;;;;;;;;;8164113;28;20042;-71
2022/09/02 20:58:45;;;;;;;3.03;0.95;;;;;;;;;;8280633;28;20430;-71
2022/09/02 21:02:52;;;;;;;1.70;0.90;;;;;;;;;;8281171;28;20037;-70
2022/09/02 21:07:00;;;;;;;1.73;0.80;;;;;;;;;;8283655;28;20107;-70
2022/09/02 21:11:05;;;;;;;2.70;1.05;;;;;;;;;;8280110;28;20031;-71
2022/09/02 21:15:22;;;;;;;0.90;0.90;;;;;;;;;;8284230;28;20144;-71
2022/09/02 21:19:34;;;;;;;1.45;0.93;;;;;;;;;;8281640;28;20091;-70
2022/09/02 21:23:37;;;;;;;1.00;0.80;;;;;;;;;;8281120;28;20068;-71
2022/09/02 21:27:53;;;;;;;1.10;0.90;;;;;;;;;;8282023;28;20029;-71
2022/09/02 21:32:05;;;;;;;1.30;0.88;;;;;;;;;;8279833;28;20416;-71
2022/09/02 21:36:05;;;;;;;1.83;1.00;;;;;;;;;;8282125;28;20029;-70
2022/09/02 21:40:09;;;;;;;1.15;0.93;;;;;;;;;;8285487;28;20147;-70
2022/09/02 21:44:21;;;;;;;0.80;0.80;;;;;;;;;;8288385;28;20033;-70
2022/09/02 21:48:40;;;;;;;1.45;0.90;;;;;;;;;;8288728;28;20067;-70
2022/09/02 21:53:03;;;;;;;0.95;0.80;;;;;;;;;;8286264;28;20107;-70
2022/09/02 21:57:23;;;;;;;1.27;1.00;;;;;;;;;;8279441;28;20124;-70
2022/09/02 22:01:23;;;;;;;0.70;0.70;;;;;;;;;;8286682;28;20099;-70
2022/09/02 22:05:46;;;;;;;1.17;0.90;;;;;;;;;;8285358;28;20381;-70
2022/09/02 22:09:58;;;;;;;1.00;0.80;;;;;;;;;;8287105;28;20068;-70
2022/09/02 22:14:02;;;;;;;1.10;1.00;;;;;;;;;;8284778;28;20756;-70
2022/09/02 22:18:16;;;;;;;1.63;0.90;;;;;;;;;;8285882;28;20069;-70
2022/09/02 22:22:17;;;;;;;;;;;;;;;;;;8286840;28;20582;-71
2022/09/02 22:26:20;;;;;;;0.93;0.90;;;;;;;;;;8276199;28;19975;-71
2022/09/02 22:30:21;;;;;;;1.25;1.00;;;;;;;;;;8285411;28;20029;-71
2022/09/02 22:34:22;;;;;;;1.52;1.10;;;;;;;;;;8285342;28;20040;-70
2022/09/02 22:38:39;;;;;;;2.03;0.90;;;;;;;;;;8285793;28;20041;-70
2022/09/02 22:42:40;;;;;;;1.08;0.98;;;;;;;;;;8285864;28;20144;-71
2022/09/02 22:55:56;;;;;;;1.05;0.95;;;;;;;;;;8283337;28;20754;-70
2022/09/02 23:00:08;;;;;;;6.40;1.10;;;;;;;;;;8284758;28;20025;-71
2022/09/02 23:04:08;;;;;;;2.80;0.90;;;;;;;;;;8284745;28;20044;-71
2022/09/02 23:08:09;;;;;;;0.77;0.77;;;;;;;;;;8282612;28;20021;-71
2022/09/02 23:12:26;;;;;;;1.67;1.00;;;;;;;;;;8286132;28;20121;-70
2022/09/02 23:16:26;;;;;;;1.00;0.90;;;;;;;;;;8284652;28;20136;-71
2022/09/02 23:20:29;;;;;;;0.93;0.90;;;;;;;;;;8283426;28;20032;-70
2022/09/02 23:24:44;;;;;;;4.17;1.30;;;;;;;;;;8282746;28;20626;-70
2022/09/02 23:28:51;;;;;;;1.50;1.17;;;;;;;;;;8283906;28;20140;-71
2022/09/02 23:33:00;;;;;;;2.63;0.98;;;;;;;;;;8282954;28;20658;-71
2022/09/02 23:37:08;;;;;;;1.48;1.00;;;;;;;;;;8281901;28;20945;-70
2022/09/02 23:41:10;;;;;;;2.30;0.90;;;;;;;;;;8281840;28;20401;-70
2022/09/02 23:45:13;;;;;;;1.08;0.90;;;;;;;;;;8282933;28;20037;-71
2022/09/02 23:49:21;;;;;;;1.33;0.93;;;;;;;;;;8285579;28;20276;-71
2022/09/02 23:53:40;;;;;;;2.15;1.00;;;;;;;;;;8273065;28;20168;-71
2022/09/02 23:57:41;;;;;;;5.97;0.90;;;;;;;;;;8284891;28;20619;-70
